Al Khubar, Saudi Arabia
Current Conditions -  °F | °C
As of 9:00 PM on Thursday 27 Nov 2014 (Local Time) from OBBI Reporting Station
Clear Clear  
Wind Chill: 73°   Ceiling: Unl
Heat Index: 73°   Visibility: 6mi
Dew Point: 54°   Wind: 10mph
Humidity: 50%   Direction: 330°NNW
Pressure: 30"   Gusts: NA
Location:  26.29°N, 50.21°E
Report Text: OBBI 271800Z 33009KT CAVOK 23/12 Q1016 NOSIG
Loading
Personal Weather Stations






























Interactive Weather Map New forecast layout! Learn more

10-Day Weather Forecast

Advertisements
Track Severe Weather on mobile